.
WxDataArchive / Data Records for 2007-09-30
2007-09-29 September 2007 2007-10-01

Data Records for Sunday, 30 September 2007

Time	Temp	Chill	HIndex	Humid	Dewpt	 Wind 	HiWind	WindDir	Rain 	Barom 
-----	----	-----	------	-----	-----	------	------	-------	-----	----- 
00:00	54.1	54.1	54.1	73	45.6	0	0	---	0.00	30.227 
00:05	53.8	53.8	53.8	73	45.3	0	0	---	0.00	30.225 
00:10	53.5	53.5	53.5	75	45.8	0	0	---	0.00	30.225 
00:15	53.1	53.1	53.1	76	45.7	0	0	---	0.00	30.227 
00:20	52.8	52.8	52.8	76	45.4	0	0	---	0.00	30.230 
00:25	52.6	52.6	52.6	76	45.3	0	0	---	0.00	30.229 
00:30	52.3	52.3	52.3	77	45.3	0	0	---	0.00	30.228 
00:35	52.3	52.3	52.3	77	45.3	0	1	270	0.00	30.228 
00:40	52.2	52.2	52.2	78	45.5	0	0	---	0.00	30.232 
00:45	52.0	52.0	52.0	78	45.4	0	0	---	0.00	30.237 
00:50	51.9	51.9	51.9	78	45.3	0	0	---	0.00	30.237 
00:55	51.7	51.7	51.7	78	45.1	0	0	---	0.00	30.238 
01:00	51.7	51.7	51.7	78	45.1	0	0	---	0.00	30.238 
01:05	51.6	51.6	51.6	79	45.3	0	0	---	0.00	30.238 
01:10	51.6	51.6	51.6	79	45.3	0	0	---	0.00	30.238 
01:15	51.4	51.4	51.4	80	45.4	0	0	---	0.00	30.239 
01:20	51.3	51.3	51.3	80	45.3	0	0	---	0.00	30.239 
01:25	51.3	51.3	51.3	80	45.3	0	0	---	0.00	30.240 
01:30	51.1	51.1	51.1	81	45.5	0	0	---	0.00	30.240 
01:35	50.8	50.8	50.8	81	45.2	0	0	---	0.00	30.241 
01:40	50.7	50.7	50.7	81	45.1	0	0	---	0.00	30.240 
01:45	50.4	50.4	50.4	82	45.1	0	0	---	0.00	30.244 
01:50	50.1	50.1	50.1	83	45.1	0	0	---	0.00	30.245 
01:55	49.9	49.9	49.9	83	44.9	0	0	---	0.00	30.243 
02:00	49.6	49.6	49.6	84	45.0	0	0	---	0.00	30.246 
02:05	49.5	49.5	49.5	85	45.2	0	0	---	0.00	30.250 
02:10	49.2	49.2	49.2	85	44.9	0	0	---	0.00	30.252 
02:15	49.1	49.1	49.1	86	45.1	0	0	---	0.00	30.250 
02:20	49.1	49.1	49.1	87	45.4	0	0	---	0.00	30.247 
02:25	48.9	48.9	48.9	87	45.2	0	0	---	0.00	30.246 
02:30	48.8	48.8	48.8	87	45.1	0	0	---	0.00	30.246 
02:35	48.8	48.8	48.8	88	45.4	0	0	---	0.00	30.244 
02:40	48.8	48.8	48.8	88	45.4	0	0	---	0.00	30.243 
02:45	48.6	48.6	48.6	88	45.2	0	0	---	0.00	30.239 
02:50	48.5	48.5	48.5	88	45.1	0	0	---	0.00	30.238 
02:55	48.3	48.3	48.3	88	44.9	0	0	---	0.00	30.235 
03:00	48.2	48.2	48.2	88	44.8	0	0	---	0.00	30.231 
03:05	48.0	48.0	48.0	89	44.9	0	0	---	0.00	30.236 
03:10	48.0	48.0	48.0	89	44.9	0	0	---	0.00	30.239 
03:15	47.9	47.9	47.9	89	44.8	0	0	---	0.00	30.237 
03:20	47.7	47.7	47.7	90	44.9	0	0	---	0.00	30.233 
03:25	47.7	47.7	47.7	90	44.9	0	0	---	0.00	30.228 
03:30	47.9	47.9	47.9	91	45.4	0	1	270	0.00	30.228 
03:35	48.2	48.2	48.2	90	45.4	0	0	---	0.00	30.229 
03:40	48.5	48.5	48.5	90	45.7	0	0	---	0.00	30.241 
03:45	48.5	48.5	48.5	90	45.7	0	0	---	0.00	30.243 
03:50	48.5	48.5	48.5	89	45.4	0	0	---	0.00	30.244 
03:55	48.5	48.5	48.5	89	45.4	0	0	---	0.00	30.250 
04:00	48.5	48.5	48.5	90	45.7	0	0	---	0.00	30.252 
04:05	48.5	48.5	48.5	90	45.7	0	0	---	0.00	30.256 
04:10	48.3	48.3	48.3	89	45.2	0	0	---	0.00	30.254 
04:15	48.3	48.3	48.3	90	45.5	0	0	---	0.00	30.251 
04:20	48.3	48.3	48.3	90	45.5	0	0	---	0.00	30.255 
04:25	48.2	48.2	48.2	90	45.4	0	0	---	0.00	30.257 
04:30	48.0	48.0	48.0	90	45.2	0	0	---	0.00	30.259 
04:35	48.0	48.0	48.0	90	45.2	0	0	---	0.00	30.259 
04:40	48.0	48.0	48.0	91	45.5	0	0	---	0.00	30.262 
04:45	47.9	47.9	47.9	91	45.4	0	0	---	0.00	30.263 
04:50	47.7	47.7	47.7	91	45.2	0	0	---	0.00	30.266 
04:55	47.6	47.6	47.6	91	45.1	0	0	---	0.00	30.269 
05:00	47.4	47.4	47.4	91	44.9	0	0	---	0.00	30.264 
05:05	47.4	47.4	47.4	92	45.2	0	0	---	0.00	30.272 
05:10	47.3	47.3	47.3	92	45.1	0	0	---	0.00	30.271 
05:15	47.0	47.0	47.0	91	44.5	0	0	---	0.00	30.272 
05:20	46.8	46.8	46.8	91	44.3	0	0	---	0.00	30.277 
05:25	46.7	46.7	46.7	91	44.2	0	0	---	0.00	30.278 
05:30	46.5	46.5	46.5	92	44.3	0	0	---	0.00	30.279 
05:35	46.4	46.4	46.4	92	44.2	0	0	---	0.00	30.278 
05:40	46.2	46.2	46.2	92	44.0	0	0	---	0.00	30.278 
05:45	46.2	46.2	46.2	92	44.0	0	0	---	0.00	30.279 
05:50	46.1	46.1	46.1	92	43.9	0	0	---	0.00	30.279 
05:55	46.0	46.0	46.0	92	43.8	0	0	---	0.00	30.279 
06:00	46.0	46.0	46.0	93	44.1	0	0	---	0.00	30.280 
06:05	45.8	45.8	45.8	93	43.9	0	0	---	0.00	30.287 
06:10	45.7	45.7	45.7	93	43.8	0	0	---	0.00	30.286 
06:15	45.8	45.8	45.8	93	43.9	0	0	---	0.00	30.287 
06:20	45.8	45.8	45.8	94	44.2	0	0	---	0.00	30.290 
06:25	45.8	45.8	45.8	94	44.2	0	0	---	0.00	30.292 
06:30	45.8	45.8	45.8	94	44.2	0	1	270	0.00	30.288 
06:35	46.0	46.0	46.0	94	44.4	0	1	270	0.00	30.288 
06:40	46.0	46.0	46.0	94	44.4	0	0	---	0.00	30.291 
06:45	46.0	46.0	46.0	94	44.4	0	0	---	0.00	30.292 
06:50	46.0	46.0	46.0	94	44.4	0	1	270	0.00	30.293 
06:55	46.1	46.1	46.1	94	44.5	0	0	---	0.00	30.294 
07:00	46.1	46.1	46.1	94	44.5	0	0	---	0.00	30.294 
07:05	46.0	46.0	46.0	94	44.4	0	0	---	0.00	30.295 
07:10	46.2	46.2	46.2	95	44.8	0	0	---	0.00	30.291 
07:15	46.4	46.4	46.4	94	44.8	0	0	---	0.00	30.293 
07:20	46.5	46.5	46.5	95	45.1	0	1	270	0.00	30.291 
07:25	47.4	47.4	47.4	95	46.0	0	1	270	0.00	30.291 
07:30	48.2	48.2	48.2	95	46.8	0	1	270	0.00	30.287 
07:35	48.8	48.8	48.8	93	46.9	1	2	270	0.00	30.285 
07:40	49.6	49.6	49.6	91	47.1	1	2	270	0.00	30.287 
07:45	50.4	50.4	50.4	89	47.3	1	2	270	0.00	30.286 
07:50	51.0	51.0	51.0	86	47.0	1	3	68	0.00	30.281 
07:55	51.7	51.7	51.7	85	47.3	1	2	68	0.00	30.276 
08:00	52.3	52.3	52.3	83	47.3	1	2	68	0.00	30.274 
08:05	52.6	52.6	52.6	81	46.9	1	2	68	0.00	30.274 
08:10	53.1	53.1	53.1	81	47.4	0	2	68	0.00	30.275 
08:15	53.3	53.3	53.3	80	47.3	0	2	90	0.00	30.272 
08:20	53.6	53.6	53.6	79	47.2	0	1	90	0.00	30.271 
08:25	54.1	54.1	54.1	78	47.4	1	2	90	0.00	30.268 
08:30	54.5	54.5	54.5	77	47.4	1	3	112	0.00	30.268 
08:35	55.1	55.1	55.1	76	47.7	0	2	112	0.00	30.266 
08:40	55.6	55.6	55.6	76	48.2	1	3	112	0.00	30.262 
08:45	56.3	56.3	56.3	75	48.5	0	2	112	0.00	30.259 
08:50	57.0	57.0	57.0	74	48.8	0	2	112	0.00	30.257 
08:55	58.0	58.0	58.0	71	48.6	0	2	112	0.00	30.256 
09:00	59.3	59.3	59.3	67	48.3	0	2	112	0.00	30.258 
09:05	60.9	60.9	60.9	66	49.5	0	2	112	0.00	30.257 
09:10	62.0	62.0	62.0	64	49.7	0	3	112	0.00	30.255 
09:15	62.9	62.9	62.9	61	49.2	0	3	135	0.00	30.254 
09:20	64.0	64.0	64.0	59	49.4	0	2	112	0.00	30.252 
09:25	65.0	65.0	65.0	56	48.9	1	3	112	0.00	30.254 
09:30	66.0	66.0	66.0	52	47.9	1	3	112	0.00	30.252 
09:35	66.6	66.6	66.6	51	47.9	1	4	90	0.00	30.249 
09:40	67.4	67.4	67.4	50	48.1	1	5	90	0.00	30.250 
09:45	67.8	67.8	67.8	48	47.4	1	4	68	0.00	30.247 
09:50	68.1	68.1	68.1	48	47.7	1	4	45	0.00	30.246 
09:55	68.6	68.6	68.6	48	48.1	1	4	112	0.00	30.247 
10:00	68.6	68.6	68.6	46	47.0	1	3	270	0.00	30.250 
10:05	68.9	68.9	68.9	49	48.9	1	4	270	0.00	30.249 
10:10	69.4	69.4	69.4	47	48.3	1	3	270	0.00	30.248 
10:15	69.9	69.9	69.9	50	50.4	0	1	0	0.00	30.244 
10:20	70.8	70.8	70.8	45	48.4	0	2	0	0.00	30.244 
10:25	71.1	71.1	71.1	45	48.7	1	7	338	0.00	30.242 
10:30	71.6	71.6	71.6	45	49.1	1	4	248	0.00	30.239 
10:35	71.8	71.8	71.8	44	48.7	1	3	90	0.00	30.239 
10:40	72.5	72.5	72.5	43	48.7	1	4	90	0.00	30.238 
10:45	73.5	73.5	73.5	43	49.6	0	3	112	0.00	30.237 
10:50	74.0	74.0	74.0	39	47.5	1	3	112	0.00	30.234 
10:55	74.0	74.0	74.0	40	48.1	1	5	248	0.00	30.233 
11:00	74.2	74.2	74.2	39	47.6	1	5	248	0.00	30.230 
11:05	75.1	75.1	77.5	39	48.4	1	2	180	0.00	30.233 
11:10	75.8	75.8	77.7	38	48.4	1	3	135	0.00	30.230 
11:15	76.5	76.5	77.8	35	46.8	1	4	68	0.00	30.229 
11:20	77.0	77.0	78.1	37	48.7	1	2	225	0.00	30.228 
11:25	77.2	77.2	78.0	34	46.6	1	5	248	0.00	30.227 
11:30	77.7	77.7	78.3	35	47.8	1	4	90	0.00	30.225 
11:35	78.1	78.1	78.5	35	48.2	1	4	90	0.00	30.223 
11:40	78.5	78.5	78.6	33	47.0	1	5	68	0.00	30.223 
11:45	78.6	78.6	78.5	32	46.3	1	4	270	0.00	30.224 
11:50	78.8	78.8	78.6	32	46.4	1	3	270	0.00	30.223 
11:55	79.2	79.2	78.9	32	46.8	2	3	248	0.00	30.222 
12:00	79.6	79.6	79.2	34	48.7	1	2	248	0.00	30.221 
12:05	80.3	80.3	79.4	31	46.9	1	3	112	0.00	30.221 
12:10	80.5	80.5	79.4	29	45.3	1	4	112	0.00	30.222 
12:15	80.5	80.5	79.6	31	47.1	1	3	248	0.00	30.221 
12:20	80.7	80.7	79.5	29	45.5	1	4	270	0.00	30.218 
12:25	80.9	80.9	79.5	27	43.8	2	6	248	0.00	30.215 
12:30	80.7	80.7	79.5	28	44.5	2	6	270	0.00	30.214 
12:35	81.1	81.1	79.7	28	44.9	2	4	248	0.00	30.208 
12:40	81.2	81.2	79.8	28	45.0	1	5	292	0.00	30.208 
12:45	81.2	81.2	79.8	28	45.0	2	9	270	0.00	30.205 
12:50	81.2	81.2	79.9	29	45.9	1	4	270	0.00	30.202 
12:55	81.6	81.6	80.3	31	48.0	1	3	338	0.00	30.195 
13:00	82.0	82.0	80.3	27	44.7	1	4	45	0.00	30.189 
13:05	82.0	82.0	80.4	29	46.6	1	5	248	0.00	30.189 
13:10	82.0	82.0	80.3	28	45.7	2	5	292	0.00	30.189 
13:15	82.0	82.0	80.3	28	45.7	2	5	292	0.00	30.185 
13:20	82.2	82.2	80.5	28	45.8	2	7	90	0.00	30.183 
13:25	82.0	82.0	80.3	28	45.7	2	7	248	0.00	30.180 
13:30	82.0	82.0	80.3	27	44.7	2	7	270	0.00	30.180 
13:35	82.2	82.2	80.5	28	45.8	1	4	270	0.00	30.176 
13:40	82.8	82.8	80.9	28	46.3	1	3	248	0.00	30.174 
13:45	83.0	83.0	81.0	27	45.5	2	6	270	0.00	30.174 
13:50	82.8	82.8	80.8	27	45.4	3	9	270	0.00	30.170 
13:55	83.0	83.0	81.0	28	46.5	2	6	248	0.00	30.165 
14:00	83.2	83.2	81.1	27	45.7	2	5	248	0.00	30.163 
14:05	83.2	83.2	81.2	28	46.7	1	4	270	0.00	30.161 
14:10	83.0	83.0	81.0	27	45.5	2	4	90	0.00	30.160 
14:15	82.8	82.8	80.9	28	46.3	3	9	270	0.00	30.160 
14:20	82.6	82.6	80.8	28	46.2	3	5	270	0.00	30.159 
14:25	82.6	82.6	80.8	28	46.2	3	8	270	0.00	30.158 
14:30	82.6	82.6	80.8	28	46.2	2	6	270	0.00	30.157 
14:35	82.8	82.8	80.9	28	46.3	2	7	270	0.00	30.157 
14:40	83.0	83.0	81.0	27	45.5	2	7	270	0.00	30.156 
14:45	82.8	82.8	80.8	27	45.4	2	5	270	0.00	30.155 
14:50	82.8	82.8	80.8	27	45.4	2	6	270	0.00	30.153 
14:55	82.6	82.6	80.8	28	46.2	2	7	270	0.00	30.152 
15:00	82.8	82.8	80.9	28	46.3	2	9	270	0.00	30.147 
15:05	83.0	83.0	81.0	28	46.5	1	3	270	0.00	30.144 
15:10	83.2	83.2	81.2	28	46.7	1	5	90	0.00	30.143 
15:15	83.0	83.0	81.0	28	46.5	2	4	270	0.00	30.146 
15:20	83.0	83.0	81.0	27	45.5	3	6	270	0.00	30.144 
15:25	82.8	82.8	80.8	27	45.4	3	8	270	0.00	30.143 
15:30	82.6	82.6	80.8	28	46.2	2	7	270	0.00	30.143 
15:35	82.6	82.6	80.8	28	46.2	2	6	270	0.00	30.142 
15:40	82.4	82.4	80.6	28	46.0	3	6	270	0.00	30.141 
15:45	82.2	82.2	80.4	27	44.9	1	7	248	0.00	30.141 
15:50	82.0	82.0	80.4	29	46.6	2	7	90	0.00	30.141 
15:55	81.8	81.8	80.1	27	44.5	2	6	270	0.00	30.137 
16:00	81.6	81.6	80.0	27	44.4	3	6	248	0.00	30.133 
16:05	81.6	81.6	80.1	29	46.2	2	5	270	0.00	30.135 
16:10	81.6	81.6	80.1	29	46.2	2	7	248	0.00	30.136 
16:15	81.4	81.4	80.1	30	47.0	2	6	248	0.00	30.135 
16:20	81.2	81.2	79.9	29	45.9	2	7	248	0.00	30.133 
16:25	81.1	81.1	79.9	30	46.7	1	7	270	0.00	30.132 
16:30	81.1	81.1	79.9	31	47.6	1	4	158	0.00	30.134 
16:35	80.9	80.9	79.8	31	47.4	2	9	90	0.00	30.137 
16:40	80.7	80.7	79.8	32	48.1	1	5	22	0.00	30.135 
16:45	80.7	80.7	79.7	31	47.2	2	8	90	0.00	30.132 
16:50	80.5	80.5	79.6	32	47.9	1	4	338	0.00	30.132 
16:55	80.3	80.3	79.4	31	46.9	1	5	292	0.00	30.131 
17:00	80.1	80.1	79.3	31	46.7	2	9	68	0.00	30.132 
17:05	79.9	79.9	79.3	32	47.4	1	7	45	0.00	30.132 
17:10	79.6	79.6	79.1	32	47.1	1	6	68	0.00	30.131 
17:15	79.2	79.2	79.0	34	48.4	0	1	68	0.00	30.132 
17:20	78.6	78.6	78.7	34	47.9	0	3	0	0.00	30.132 
17:25	78.5	78.5	78.6	34	47.8	1	4	270	0.00	30.133 
17:30	78.3	78.3	78.6	35	48.4	0	3	112	0.00	30.132 
17:35	78.1	78.1	78.5	35	48.2	0	3	112	0.00	30.132 
17:40	77.7	77.7	78.3	36	48.6	0	2	90	0.00	30.132 
17:45	77.6	77.6	78.3	36	48.5	1	4	0	0.00	30.131 
17:50	77.4	77.4	78.3	37	49.1	0	2	0	0.00	30.133 
17:55	77.0	77.0	78.1	38	49.4	0	1	22	0.00	30.133 
18:00	76.7	76.7	78.1	39	49.9	0	2	22	0.00	30.132 
18:05	76.3	76.3	77.9	39	49.5	0	2	22	0.00	30.131 
18:10	76.1	76.1	77.8	39	49.3	0	2	45	0.00	30.131 
18:15	75.8	75.8	77.7	39	49.1	0	1	338	0.00	30.131 
18:20	75.6	75.6	77.7	40	49.6	0	2	338	0.00	30.129 
18:25	75.3	75.3	77.6	40	49.3	1	2	338	0.00	30.126 
18:30	75.3	75.3	77.6	40	49.3	0	2	0	0.00	30.125 
18:35	75.1	75.1	77.6	41	49.8	0	1	0	0.00	30.123 
18:40	74.7	74.7	74.7	42	50.1	0	1	22	0.00	30.123 
18:45	74.4	74.4	74.4	42	49.8	0	1	22	0.00	30.124 
18:50	74.0	74.0	74.0	43	50.1	0	1	22	0.00	30.123 
18:55	73.7	73.7	73.7	43	49.8	0	2	22	0.00	30.123 
19:00	73.3	73.3	73.3	43	49.4	0	2	22	0.00	30.126 
19:05	73.0	73.0	73.0	44	49.8	0	1	22	0.00	30.121 
19:10	72.7	72.7	72.7	45	50.1	0	1	22	0.00	30.124 
19:15	72.3	72.3	72.3	45	49.8	0	1	22	0.00	30.125 
19:20	72.0	72.0	72.0	46	50.1	0	1	22	0.00	30.125 
19:25	71.8	71.8	71.8	45	49.3	0	2	22	0.00	30.122 
19:30	72.0	72.0	72.0	45	49.5	0	2	45	0.00	30.118 
19:35	72.0	72.0	72.0	46	50.1	0	3	112	0.00	30.117 
19:40	71.8	71.8	71.8	46	49.9	0	2	112	0.00	30.118 
19:45	71.6	71.6	71.6	46	49.7	0	1	112	0.00	30.118 
19:50	71.5	71.5	71.5	47	50.2	0	2	112	0.00	30.117 
19:55	70.8	70.8	70.8	49	50.7	0	1	112	0.00	30.118 
20:00	70.1	70.1	70.1	50	50.6	0	1	112	0.00	30.117 
20:05	69.8	69.8	69.8	49	49.8	0	2	112	0.00	30.112 
20:10	69.6	69.6	69.6	50	50.1	0	1	112	0.00	30.111 
20:15	69.6	69.6	69.6	49	49.6	0	5	112	0.00	30.109 
20:20	69.6	69.6	69.6	49	49.6	0	2	112	0.00	30.112 
20:25	69.6	69.6	69.6	49	49.6	0	2	112	0.00	30.113 
20:30	69.6	69.6	69.6	49	49.6	0	1	112	0.00	30.113 
20:35	69.4	69.4	69.4	49	49.4	0	2	112	0.00	30.113 
20:40	69.3	69.3	69.3	50	49.8	0	1	112	0.00	30.114 
20:45	69.1	69.1	69.1	50	49.7	0	1	112	0.00	30.113 
20:50	68.9	68.9	68.9	51	50.0	0	1	112	0.00	30.114 
20:55	68.6	68.6	68.6	50	49.2	0	2	112	0.00	30.114 
21:00	68.6	68.6	68.6	50	49.2	0	2	112	0.00	30.113 
21:05	68.9	68.9	68.9	50	49.5	0	3	90	0.00	30.106 
21:10	69.1	69.1	69.1	49	49.1	0	3	90	0.00	30.108 
21:15	69.1	69.1	69.1	49	49.1	0	2	68	0.00	30.109 
21:20	69.1	69.1	69.1	49	49.1	0	1	68	0.00	30.107 
21:25	69.1	69.1	69.1	49	49.1	0	2	68	0.00	30.107 
21:30	69.1	69.1	69.1	49	49.1	0	1	68	0.00	30.108 
21:35	69.1	69.1	69.1	49	49.1	0	1	68	0.00	30.109 
21:40	68.9	68.9	68.9	49	48.9	0	2	68	0.00	30.109 
21:45	68.9	68.9	68.9	49	48.9	0	1	68	0.00	30.108 
21:50	68.8	68.8	68.8	49	48.8	0	1	68	0.00	30.108 
21:55	68.6	68.6	68.6	50	49.2	0	1	68	0.00	30.107 
22:00	68.4	68.4	68.4	50	49.0	0	1	68	0.00	30.107 
22:05	68.1	68.1	68.1	50	48.7	0	1	68	0.00	30.102 
22:10	67.9	67.9	67.9	50	48.6	0	2	68	0.00	30.102 
22:15	67.8	67.8	67.8	50	48.5	0	1	68	0.00	30.101 
22:20	67.8	67.8	67.8	51	49.0	0	1	68	0.00	30.098 
22:25	67.6	67.6	67.6	51	48.8	0	1	68	0.00	30.095 
22:30	67.6	67.6	67.6	51	48.8	0	2	68	0.00	30.100 
22:35	67.4	67.4	67.4	51	48.6	0	2	338	0.00	30.101 
22:40	67.4	67.4	67.4	51	48.6	0	1	338	0.00	30.096 
22:45	67.3	67.3	67.3	52	49.1	0	2	338	0.00	30.101 
22:50	66.9	66.9	66.9	52	48.7	0	1	338	0.00	30.101 
22:55	66.6	66.6	66.6	53	48.9	0	1	338	0.00	30.100 
23:00	66.4	66.4	66.4	53	48.7	0	1	338	0.00	30.100 
23:05	66.1	66.1	66.1	54	49.0	0	2	338	0.00	30.097 
23:10	66.0	66.0	66.0	54	48.9	0	1	338	0.00	30.095 
23:15	65.8	65.8	65.8	54	48.7	0	1	338	0.00	30.094 
23:20	65.6	65.6	65.6	54	48.5	0	1	0	0.00	30.092 
23:25	65.5	65.5	65.5	54	48.4	0	1	0	0.00	30.091 
23:30	65.5	65.5	65.5	55	48.9	0	2	0	0.00	30.088 
23:35	65.3	65.3	65.3	54	48.2	0	2	0	0.00	30.086 
23:40	65.3	65.3	65.3	54	48.2	0	2	22	0.00	30.086 
23:45	65.5	65.5	65.5	54	48.4	0	2	22	0.00	30.085 
23:50	65.5	65.5	65.5	54	48.4	0	3	22	0.00	30.085 
23:55	65.6	65.6	65.6	53	48.0	1	4	22	0.00	30.085 

CoCoRaHS
IN-AL-39
A2 Web Hosting
Creative Commons License
GoDaddy
Look for:

loaded 2017-12-12 14:55:00 • last modified 2010-11-18 10:43:29
Privacy PolicyDisclaimer
• wx.awcolley.com is powered by PmWiki v.2002016 •
• all content (unless otherwise noted) © 2017 A W Colley